createdAt,value
2018-01-20T00:00:15.330Z,23.47
2018-01-20T00:02:43.156Z,18.40
2018-01-20T00:05:10.924Z,15.70
2018-01-20T00:07:38.680Z,17.03
2018-01-20T00:23:35.649Z,18.20
2018-01-20T00:26:08.937Z,18.93
2018-01-20T00:28:36.784Z,21.73
2018-01-20T00:31:04.573Z,20.20
2018-01-20T00:33:32.400Z,19.13
2018-01-20T00:36:00.202Z,26.00
2018-01-20T00:38:27.956Z,19.27
2018-01-20T00:40:55.769Z,18.43
2018-01-20T00:43:23.607Z,23.03
2018-01-20T00:45:51.407Z,19.13
2018-01-20T00:48:19.910Z,21.20
2018-01-20T00:50:47.724Z,24.33
2018-01-20T00:53:15.525Z,20.03
2018-01-20T00:55:43.340Z,20.43
2018-01-20T00:58:11.156Z,26.20
2018-01-20T01:00:38.954Z,24.90
2018-01-20T01:03:06.773Z,20.40
2018-01-20T01:05:34.520Z,20.17
2018-01-20T01:08:02.359Z,21.10
2018-01-20T01:10:30.169Z,23.80
2018-01-20T01:12:57.918Z,24.27
2018-01-20T01:15:25.683Z,25.17
2018-01-20T01:17:53.408Z,16.80
2018-01-20T01:20:21.244Z,23.80
2018-01-20T01:22:49.011Z,18.17
2018-01-20T01:25:16.768Z,23.30
2018-01-20T01:27:44.591Z,19.53
2018-01-20T01:30:12.415Z,23.43
2018-01-20T01:32:40.225Z,23.10
2018-01-20T01:35:08.778Z,15.27
2018-01-20T01:37:36.559Z,21.17
2018-01-20T01:40:04.381Z,18.60
2018-01-20T01:42:32.115Z,22.17
2018-01-20T01:44:59.950Z,19.13
2018-01-20T01:47:27.748Z,21.87
2018-01-20T01:49:55.591Z,21.47
2018-01-20T01:52:24.152Z,24.00
2018-01-20T01:54:51.919Z,24.63
2018-01-20T01:57:19.718Z,21.10
2018-01-20T01:59:48.252Z,21.33
2018-01-20T02:02:16.038Z,26.10
2018-01-20T02:04:43.789Z,18.60
2018-01-20T02:07:11.600Z,16.93
2018-01-20T02:09:39.355Z,18.50
2018-01-20T02:12:07.112Z,15.83
2018-01-20T02:14:34.935Z,20.47
2018-01-20T02:17:02.689Z,16.50
2018-01-20T02:19:30.814Z,16.37
2018-01-20T02:21:58.579Z,16.73
2018-01-20T02:24:26.385Z,20.90
2018-01-20T02:26:54.978Z,14.83
2018-01-20T02:29:22.711Z,15.70
2018-01-20T02:31:50.535Z,12.67
2018-01-20T02:34:18.265Z,14.07
2018-01-20T02:36:46.008Z,14.90
2018-01-20T02:39:13.755Z,14.63
2018-01-20T02:41:41.569Z,18.23
2018-01-20T02:44:09.317Z,18.23
2018-01-20T02:46:37.103Z,15.20
2018-01-20T02:49:04.919Z,19.40
2018-01-20T02:51:32.716Z,17.90
2018-01-20T02:54:00.561Z,14.10
2018-01-20T02:56:28.396Z,18.77
2018-01-20T02:58:56.190Z,16.73
2018-01-20T03:01:23.993Z,21.30
2018-01-20T03:03:51.831Z,15.60
2018-01-20T03:06:19.586Z,17.70
2018-01-20T03:08:47.311Z,16.60
2018-01-20T03:11:15.058Z,15.50
2018-01-20T03:13:42.785Z,13.53
2018-01-20T03:16:10.519Z,17.40
2018-01-20T03:18:38.272Z,15.37
2018-01-20T03:21:06.099Z,15.27
2018-01-20T03:23:33.932Z,17.23
2018-01-20T03:26:01.778Z,14.90
2018-01-20T03:28:30.307Z,20.90
2018-01-20T03:30:58.089Z,14.43
2018-01-20T03:33:25.857Z,15.13
2018-01-20T03:35:53.646Z,16.30
2018-01-20T03:38:21.392Z,16.30
2018-01-20T03:40:49.200Z,14.43
2018-01-20T03:43:17.033Z,17.07
2018-01-20T03:45:44.833Z,13.83
2018-01-20T03:48:13.418Z,13.70
2018-01-20T03:50:41.157Z,14.00
2018-01-20T03:53:08.968Z,16.73
2018-01-20T03:55:36.786Z,14.73
2018-01-20T03:58:04.536Z,14.07
2018-01-20T04:00:32.266Z,18.33
2018-01-20T04:02:59.999Z,14.87
2018-01-20T04:05:27.769Z,12.70
2018-01-20T04:07:55.521Z,10.40
2018-01-20T04:10:23.328Z,10.90
2018-01-20T04:12:51.121Z,12.00
2018-01-20T04:15:18.937Z,12.47
2018-01-20T04:17:47.533Z,12.60
2018-01-20T04:20:15.327Z,10.57
2018-01-20T04:22:43.082Z,10.80
2018-01-20T04:25:10.848Z,15.37
2018-01-20T04:27:38.566Z,14.57
2018-01-20T04:30:06.308Z,12.97
2018-01-20T04:32:34.114Z,11.50
2018-01-20T04:35:01.835Z,14.33
2018-01-20T04:37:29.589Z,14.70
2018-01-20T04:39:57.407Z,13.10
2018-01-20T04:42:25.164Z,11.50
2018-01-20T04:44:52.968Z,15.03
2018-01-20T04:47:20.758Z,15.07
2018-01-20T04:49:48.720Z,11.23
2018-01-20T04:52:16.442Z,9.70
2018-01-20T04:54:44.216Z,9.37
2018-01-20T04:57:12.928Z,8.70
2018-01-20T04:59:40.706Z,12.90
2018-01-20T05:02:08.453Z,10.63
2018-01-20T05:04:36.232Z,11.70
2018-01-20T05:07:04.087Z,13.00
2018-01-20T05:09:31.864Z,7.43
2018-01-20T05:11:59.615Z,9.10
2018-01-20T05:14:27.395Z,13.17
2018-01-20T05:16:55.200Z,13.17
2018-01-20T05:19:22.961Z,8.10
2018-01-20T05:21:50.741Z,12.10
2018-01-20T05:24:18.529Z,8.43
2018-01-20T05:26:46.280Z,7.33
2018-01-20T05:29:14.046Z,11.80
2018-01-20T05:31:41.831Z,13.60
2018-01-20T05:34:09.589Z,10.30
2018-01-20T05:36:37.319Z,11.27
2018-01-20T05:39:05.158Z,14.40
2018-01-20T05:41:33.701Z,9.60
2018-01-20T05:44:01.453Z,11.70
2018-01-20T05:46:29.187Z,9.27
2018-01-20T05:48:57.772Z,11.90
2018-01-20T05:51:26.278Z,9.40
2018-01-20T05:53:54.028Z,9.57
2018-01-20T05:56:27.781Z,9.83
2018-01-20T05:58:57.781Z,11.13
2018-01-20T06:01:25.651Z,10.13
2018-01-20T06:03:53.420Z,12.03
2018-01-20T06:06:21.276Z,13.93
2018-01-20T06:08:49.193Z,10.07
2018-01-20T06:11:17.236Z,10.10
2018-01-20T06:13:45.096Z,11.77
2018-01-20T06:16:12.987Z,9.57
2018-01-20T06:18:40.861Z,10.27
2018-01-20T06:21:08.832Z,12.33
2018-01-20T06:23:36.650Z,8.73
2018-01-20T06:26:04.422Z,14.60
2018-01-20T06:28:32.250Z,12.63
2018-01-20T06:31:00.110Z,13.83
2018-01-20T06:33:28.056Z,11.00
2018-01-20T06:35:55.821Z,13.37
2018-01-20T06:38:23.651Z,12.73
2018-01-20T06:40:51.485Z,8.53
2018-01-20T06:43:19.233Z,13.83
2018-01-20T06:45:46.972Z,11.50
2018-01-20T06:48:14.753Z,10.20
2018-01-20T06:50:42.558Z,10.97
2018-01-20T06:53:10.339Z,9.80
2018-01-20T06:55:38.929Z,10.30
2018-01-20T06:58:06.789Z,11.43
2018-01-20T07:00:34.612Z,13.60
2018-01-20T07:03:02.458Z,12.10
2018-01-20T07:05:30.307Z,15.90
2018-01-20T07:07:58.115Z,16.00
2018-01-20T07:10:25.930Z,12.97
2018-01-20T07:12:54.677Z,13.70
2018-01-20T07:15:22.592Z,13.53
2018-01-20T07:17:50.466Z,12.30
2018-01-20T07:20:19.098Z,14.60
2018-01-20T07:22:46.966Z,12.73
2018-01-20T07:25:14.849Z,11.20
2018-01-20T07:27:42.668Z,18.33
2018-01-20T07:30:10.544Z,10.50
2018-01-20T07:32:39.887Z,11.53
2018-01-20T07:35:07.741Z,14.47
2018-01-20T07:37:35.574Z,17.00
2018-01-20T07:40:09.048Z,17.70
2018-01-20T07:42:36.918Z,22.13
2018-01-20T07:45:04.872Z,19.43
2018-01-20T07:47:32.688Z,14.43
2018-01-20T07:50:00.531Z,15.83
2018-01-20T07:52:28.357Z,21.57
2018-01-20T07:54:56.158Z,16.73
2018-01-20T07:57:27.916Z,18.93
2018-01-20T07:59:56.835Z,17.67
2018-01-20T08:02:24.670Z,13.80
2018-01-20T08:04:52.551Z,16.63
2018-01-20T08:07:20.438Z,15.83
2018-01-20T08:09:48.508Z,13.70
2018-01-20T08:12:17.203Z,16.37
2018-01-20T08:14:45.561Z,14.63
2018-01-20T08:17:13.403Z,27.07
2018-01-20T08:19:41.477Z,16.17
2018-01-20T08:22:14.171Z,18.23
2018-01-20T08:24:42.929Z,16.30
2018-01-20T08:27:10.866Z,17.23
2018-01-20T08:29:38.823Z,17.20
2018-01-20T08:32:06.761Z,16.80
2018-01-20T08:34:34.671Z,15.47
2018-01-20T08:37:02.496Z,15.93
2018-01-20T08:39:30.569Z,27.93
2018-01-20T08:41:58.727Z,15.40
2018-01-20T08:44:27.534Z,20.53
2018-01-20T08:46:57.862Z,15.00
2018-01-20T08:49:25.681Z,15.37
2018-01-20T08:51:54.363Z,17.30
2018-01-20T08:54:22.240Z,14.83
2018-01-20T08:56:50.794Z,16.07
2018-01-20T08:59:18.639Z,18.83
2018-01-20T09:01:46.377Z,16.90
2018-01-20T09:04:14.248Z,17.17
2018-01-20T09:06:42.188Z,25.87
2018-01-20T09:09:10.032Z,14.33
2018-01-20T09:11:37.952Z,19.10
2018-01-20T09:14:05.699Z,17.67
2018-01-20T09:16:33.514Z,17.50
2018-01-20T09:19:01.314Z,20.27
2018-01-20T09:21:29.262Z,18.27
2018-01-20T09:23:57.202Z,18.13
2018-01-20T09:26:25.173Z,19.83
2018-01-20T09:28:52.958Z,19.83
2018-01-20T09:31:21.339Z,19.20
2018-01-20T09:33:49.192Z,22.40
2018-01-20T09:36:17.383Z,22.87
2018-01-20T09:38:45.236Z,23.93
2018-01-20T09:41:13.155Z,23.43
2018-01-20T09:43:41.049Z,24.50
2018-01-20T09:46:08.906Z,20.00
2018-01-20T09:48:36.815Z,33.33
2018-01-20T09:51:04.677Z,18.40
2018-01-20T09:53:33.069Z,22.07
2018-01-20T09:56:01.163Z,24.03
2018-01-20T09:58:29.374Z,23.47
2018-01-20T10:01:05.420Z,23.67
2018-01-20T10:03:33.200Z,25.00
2018-01-20T10:06:00.934Z,27.67
2018-01-20T10:08:28.704Z,23.73
2018-01-20T10:10:56.502Z,24.20
2018-01-20T10:13:24.390Z,24.13
2018-01-20T10:15:52.161Z,20.10
2018-01-20T10:18:19.996Z,25.37
2018-01-20T10:20:47.760Z,29.20
2018-01-20T10:23:15.586Z,22.10
2018-01-20T10:25:44.307Z,22.20
2018-01-20T10:28:12.126Z,24.43
2018-01-20T10:30:40.785Z,26.83
2018-01-20T10:33:08.586Z,27.97
2018-01-20T10:35:36.388Z,27.17
2018-01-20T10:38:04.272Z,27.10
2018-01-20T10:40:32.247Z,23.57
2018-01-20T10:43:00.049Z,29.00
2018-01-20T10:45:27.838Z,23.60
2018-01-20T10:47:55.728Z,29.93
2018-01-20T10:50:23.502Z,29.43
2018-01-20T10:52:51.371Z,32.97
2018-01-20T10:55:19.156Z,27.80
2018-01-20T10:57:47.112Z,32.23
2018-01-20T11:00:14.953Z,31.27
2018-01-20T11:02:42.794Z,29.23
2018-01-20T11:05:11.304Z,32.20
2018-01-20T11:07:39.154Z,39.70
2018-01-20T11:10:07.762Z,32.20
2018-01-20T11:12:35.682Z,27.87
2018-01-20T11:15:03.490Z,31.50
2018-01-20T11:17:31.262Z,32.50
2018-01-20T11:19:59.072Z,29.60
2018-01-20T11:22:26.814Z,41.73
2018-01-20T11:24:54.543Z,34.00
2018-01-20T11:27:22.323Z,32.40
2018-01-20T11:29:50.053Z,35.73
2018-01-20T11:32:17.855Z,33.30
2018-01-20T11:34:45.657Z,35.17
2018-01-20T11:37:13.418Z,38.23
2018-01-20T11:39:41.202Z,37.93
2018-01-20T11:42:09.020Z,33.60
2018-01-20T11:44:36.839Z,44.67
2018-01-20T11:47:04.591Z,31.20
2018-01-20T11:49:32.347Z,38.07
2018-01-20T11:52:00.092Z,49.50
2018-01-20T11:54:27.867Z,33.50
2018-01-20T11:56:55.747Z,35.10
2018-01-20T11:59:23.516Z,30.30
2018-01-20T12:01:51.323Z,34.50
2018-01-20T12:04:19.128Z,42.80
2018-01-20T12:06:46.942Z,36.30
2018-01-20T12:09:14.687Z,38.93
2018-01-20T12:11:42.588Z,45.37
2018-01-20T12:14:10.366Z,46.77
2018-01-20T12:16:41.564Z,37.53
2018-01-20T12:19:10.576Z,40.60
2018-01-20T12:21:39.131Z,39.30
2018-01-20T12:24:08.989Z,43.43
2018-01-20T12:26:36.875Z,40.13
2018-01-20T12:29:05.572Z,43.10
2018-01-20T12:31:34.227Z,40.17
2018-01-20T12:34:02.201Z,39.07
2018-01-20T12:36:30.086Z,38.23
2018-01-20T12:38:58.844Z,49.63
2018-01-20T12:41:26.839Z,48.37
2018-01-20T12:43:54.790Z,34.23
2018-01-20T12:46:22.767Z,39.40
2018-01-20T12:48:52.339Z,42.93
2018-01-20T12:51:21.168Z,40.83
2018-01-20T12:53:49.633Z,42.60
2018-01-20T12:56:18.190Z,37.07
2018-01-20T12:58:46.150Z,41.47
2018-01-20T13:01:14.846Z,38.00
2018-01-20T13:03:43.683Z,37.50
2018-01-20T13:06:11.792Z,36.00
2018-01-20T13:08:39.967Z,37.20
2018-01-20T13:11:08.093Z,38.57
2018-01-20T13:13:35.896Z,31.53
2018-01-20T13:16:03.732Z,37.50
2018-01-20T13:18:31.523Z,42.00
2018-01-20T13:20:59.681Z,35.20
2018-01-20T13:23:27.436Z,31.20
2018-01-20T13:25:55.256Z,34.17
2018-01-20T13:28:23.159Z,43.93
2018-01-20T13:30:50.926Z,35.97
2018-01-20T13:33:19.478Z,41.00
2018-01-20T13:35:47.312Z,43.63
2018-01-20T13:38:15.181Z,38.60
2018-01-20T13:40:43.192Z,36.73
2018-01-20T13:43:11.070Z,37.00
2018-01-20T13:45:38.844Z,42.20
2018-01-20T13:48:06.715Z,34.93
2018-01-20T13:50:35.344Z,35.17
2018-01-20T13:53:03.132Z,35.37
2018-01-20T13:55:31.002Z,34.97
2018-01-20T13:57:58.775Z,45.70
2018-01-20T14:00:26.585Z,38.03
2018-01-20T14:02:54.364Z,36.00
2018-01-20T14:05:22.136Z,38.90
2018-01-20T14:07:49.948Z,36.97
2018-01-20T14:10:17.771Z,41.50
2018-01-20T14:12:45.547Z,32.83
2018-01-20T14:15:13.440Z,34.97
2018-01-20T14:17:41.332Z,37.87
2018-01-20T14:20:09.162Z,36.93
2018-01-20T14:22:36.978Z,29.97
2018-01-20T14:25:05.538Z,37.60
2018-01-20T14:27:33.356Z,39.23
2018-01-20T14:30:01.198Z,35.50
2018-01-20T14:32:28.995Z,33.50
2018-01-20T14:34:56.804Z,31.83
2018-01-20T14:37:24.716Z,32.67
2018-01-20T14:39:53.389Z,36.17
2018-01-20T14:42:22.130Z,33.60
2018-01-20T14:44:49.945Z,29.00
2018-01-20T14:47:17.805Z,33.70
2018-01-20T14:49:45.555Z,48.33
2018-01-20T14:52:13.433Z,45.03
2018-01-20T14:54:41.262Z,44.77
2018-01-20T14:57:09.022Z,45.20
2018-01-20T14:59:37.780Z,43.90
2018-01-20T15:02:05.618Z,42.83
2018-01-20T15:04:33.357Z,41.40
2018-01-20T15:07:01.266Z,41.30
2018-01-20T15:09:29.012Z,47.37
2018-01-20T15:11:56.805Z,36.47
2018-01-20T15:14:24.548Z,40.33
2018-01-20T15:16:52.448Z,43.43
2018-01-20T15:19:20.244Z,40.67
2018-01-20T15:21:48.045Z,36.30
2018-01-20T15:24:16.036Z,38.67
2018-01-20T15:26:43.879Z,41.60
2018-01-20T15:29:11.741Z,37.60
2018-01-20T15:31:39.675Z,36.37
2018-01-20T15:34:08.317Z,38.60
2018-01-20T15:36:36.127Z,44.13
2018-01-20T15:39:03.981Z,36.60
2018-01-20T15:41:31.799Z,40.17
2018-01-20T15:43:59.680Z,36.30
2018-01-20T15:46:27.428Z,35.63
2018-01-20T15:48:55.142Z,45.07
2018-01-20T15:51:23.001Z,39.20
2018-01-20T15:53:50.848Z,37.10
2018-01-20T15:56:18.683Z,32.03
2018-01-20T15:58:47.327Z,39.90
2018-01-20T16:01:15.148Z,31.73
2018-01-20T16:03:43.152Z,34.60
2018-01-20T16:06:11.015Z,34.73
2018-01-20T16:08:39.639Z,30.53
2018-01-20T16:11:07.457Z,36.77
2018-01-20T16:13:35.294Z,35.30
2018-01-20T16:16:03.815Z,39.87
2018-01-20T16:18:31.651Z,38.53
2018-01-20T16:20:59.440Z,41.93
2018-01-20T16:23:27.157Z,32.13
2018-01-20T16:25:54.972Z,29.90
2018-01-20T16:28:22.695Z,33.60
2018-01-20T16:30:50.425Z,29.70
2018-01-20T16:33:18.191Z,38.27
2018-01-20T16:35:45.914Z,40.03
2018-01-20T16:38:14.485Z,36.13
2018-01-20T16:40:42.309Z,33.23
2018-01-20T16:43:10.041Z,35.40
2018-01-20T16:45:38.621Z,30.17
2018-01-20T16:48:06.348Z,32.87
2018-01-20T16:50:34.141Z,32.53
2018-01-20T16:53:01.980Z,37.27
2018-01-20T16:55:29.790Z,35.90
2018-01-20T16:57:58.340Z,32.83
2018-01-20T17:00:26.104Z,36.17
2018-01-20T17:02:53.926Z,40.93
2018-01-20T17:05:22.611Z,32.73
2018-01-20T17:07:50.413Z,35.63
2018-01-20T17:10:18.213Z,33.87
2018-01-20T17:12:45.954Z,41.27
2018-01-20T17:15:13.702Z,40.40
2018-01-20T17:17:41.454Z,38.77
2018-01-20T17:20:09.240Z,37.10
2018-01-20T17:22:37.010Z,34.87
2018-01-20T17:25:04.905Z,37.90
2018-01-20T17:27:36.333Z,38.37
2018-01-20T17:30:04.151Z,42.60
2018-01-20T17:32:31.901Z,37.10
2018-01-20T17:34:59.709Z,34.23
2018-01-20T17:37:27.454Z,36.00
2018-01-20T17:39:55.214Z,43.93
2018-01-20T17:42:23.743Z,46.30
2018-01-20T17:44:51.743Z,32.93
2018-01-20T17:47:19.566Z,34.10
2018-01-20T17:49:47.437Z,38.07
2018-01-20T17:52:15.276Z,36.83
2018-01-20T17:54:43.168Z,30.80
2018-01-20T17:57:10.979Z,36.77
2018-01-20T17:59:38.765Z,37.50
2018-01-20T18:02:06.550Z,40.57
2018-01-20T18:04:35.097Z,38.50
2018-01-20T18:07:02.868Z,40.67
2018-01-20T18:09:30.655Z,43.67
2018-01-20T18:11:58.457Z,46.57
2018-01-20T18:14:26.274Z,58.37
2018-01-20T18:16:54.129Z,48.57
2018-01-20T18:19:21.973Z,44.00
2018-01-20T18:21:49.755Z,41.00
2018-01-20T18:24:17.593Z,40.33
2018-01-20T18:26:45.513Z,45.67
2018-01-20T18:29:13.419Z,39.87
2018-01-20T18:31:47.665Z,41.30
2018-01-20T18:34:15.414Z,42.60
2018-01-20T18:36:43.914Z,39.50
2018-01-20T18:39:11.648Z,41.43
2018-01-20T18:41:40.158Z,42.67
2018-01-20T18:44:07.923Z,44.40
2018-01-20T18:46:35.703Z,48.83
2018-01-20T18:49:03.472Z,49.07
2018-01-20T18:51:31.298Z,44.00
2018-01-20T18:53:59.071Z,43.87
2018-01-20T18:56:26.791Z,44.83
2018-01-20T18:58:54.523Z,42.73
2018-01-20T19:01:22.284Z,45.80
2018-01-20T19:03:50.093Z,52.27
2018-01-20T19:06:17.834Z,49.13
2018-01-20T19:08:45.604Z,42.87
2018-01-20T19:11:13.423Z,43.93
2018-01-20T19:13:41.216Z,46.10
2018-01-20T19:16:09.801Z,45.80
2018-01-20T19:18:37.544Z,49.50
2018-01-20T19:21:05.318Z,42.83
2018-01-20T19:23:33.138Z,39.50
2018-01-20T19:26:00.913Z,41.30
2018-01-20T19:28:28.708Z,59.03
2018-01-20T19:30:56.462Z,43.77
2018-01-20T19:33:24.303Z,51.17
2018-01-20T19:35:52.041Z,45.30
2018-01-20T19:38:21.345Z,47.60
2018-01-20T19:40:49.202Z,46.13
2018-01-20T19:43:18.386Z,44.07
2018-01-20T19:45:46.402Z,43.90
2018-01-20T19:48:14.167Z,48.03
2018-01-20T19:50:42.894Z,43.10
2018-01-20T19:53:10.674Z,40.63
2018-01-20T19:55:38.474Z,43.10
2018-01-20T19:58:06.270Z,43.90
2018-01-20T20:00:34.093Z,49.60
2018-01-20T20:03:02.621Z,46.40
2018-01-20T20:05:30.377Z,43.80
2018-01-20T20:07:58.213Z,47.63
2018-01-20T20:10:25.993Z,42.13
2018-01-20T20:12:54.517Z,44.73
2018-01-20T20:15:22.336Z,47.80
2018-01-20T20:17:50.129Z,44.60
2018-01-20T20:20:17.868Z,38.63
2018-01-20T20:22:45.648Z,48.67
2018-01-20T20:25:13.440Z,41.17
2018-01-20T20:27:41.158Z,46.67
2018-01-20T20:30:08.980Z,46.20
2018-01-20T20:32:36.804Z,42.63
2018-01-20T20:35:04.588Z,51.63
2018-01-20T20:37:32.338Z,42.80
2018-01-20T20:40:00.088Z,52.90
2018-01-20T20:42:27.907Z,46.03
2018-01-20T20:44:55.641Z,52.73
2018-01-20T20:47:23.464Z,48.47
2018-01-20T20:49:51.210Z,46.47
2018-01-20T20:52:18.968Z,50.07
2018-01-20T20:54:46.718Z,48.53
2018-01-20T20:57:14.470Z,47.83
2018-01-20T20:59:42.196Z,43.40
2018-01-20T21:02:09.999Z,50.90
2018-01-20T21:04:37.791Z,48.50
2018-01-20T21:07:05.535Z,49.53
2018-01-20T21:09:33.318Z,48.97
2018-01-20T21:12:01.057Z,45.50
2018-01-20T21:14:28.809Z,47.80
2018-01-20T21:16:56.579Z,47.33
2018-01-20T21:19:24.333Z,48.57
2018-01-20T21:21:52.102Z,47.33
2018-01-20T21:24:19.903Z,57.00
2018-01-20T21:26:47.713Z,50.20
2018-01-20T21:29:18.562Z,48.00
2018-01-20T21:31:47.584Z,54.20
2018-01-20T21:34:21.477Z,55.50
2018-01-20T21:36:49.598Z,58.73
2018-01-20T21:39:17.623Z,51.33
2018-01-20T21:41:45.528Z,51.90
2018-01-20T21:44:15.209Z,54.53
2018-01-20T21:46:44.481Z,56.93
2018-01-20T21:49:12.714Z,52.53
2018-01-20T21:51:40.471Z,49.53
2018-01-20T21:54:08.238Z,52.70
2018-01-20T21:56:36.030Z,52.97
2018-01-20T21:59:03.974Z,52.80
2018-01-20T22:01:32.206Z,54.53
2018-01-20T22:04:00.565Z,54.00
2018-01-20T22:06:29.165Z,49.20
2018-01-20T22:08:57.065Z,51.83
2018-01-20T22:11:24.880Z,55.73
2018-01-20T22:13:52.730Z,51.97
2018-01-20T22:16:20.472Z,53.33
2018-01-20T22:18:48.246Z,51.77
2018-01-20T22:21:15.989Z,57.67
2018-01-20T22:23:43.799Z,54.50
2018-01-20T22:26:11.577Z,59.70
2018-01-20T22:28:39.418Z,48.97
2018-01-20T22:31:07.147Z,54.37
2018-01-20T22:33:34.943Z,48.77
2018-01-20T22:36:02.743Z,49.50
2018-01-20T22:38:30.499Z,54.43
2018-01-20T22:40:58.305Z,47.57
2018-01-20T22:43:26.135Z,51.33
2018-01-20T22:45:53.928Z,51.60
2018-01-20T22:48:22.505Z,49.40
2018-01-20T22:50:50.333Z,54.93
2018-01-20T22:53:18.164Z,53.60
2018-01-20T22:55:45.911Z,57.83
2018-01-20T22:58:14.508Z,59.03
2018-01-20T23:00:42.300Z,52.00
2018-01-20T23:03:10.850Z,45.97
2018-01-20T23:05:39.452Z,56.00
2018-01-20T23:08:07.227Z,56.87
2018-01-20T23:10:35.036Z,47.80
2018-01-20T23:13:02.836Z,49.17
2018-01-20T23:15:30.580Z,47.13
2018-01-20T23:17:58.344Z,51.47
2018-01-20T23:20:26.147Z,46.13
2018-01-20T23:22:53.968Z,52.10
2018-01-20T23:25:21.716Z,45.53
2018-01-20T23:27:49.523Z,53.53
2018-01-20T23:30:18.514Z,49.27
2018-01-20T23:32:47.313Z,50.00
2018-01-20T23:35:18.673Z,44.47
2018-01-20T23:37:48.188Z,49.20
2018-01-20T23:40:17.975Z,51.90
2018-01-20T23:42:45.911Z,57.60
2018-01-20T23:45:13.692Z,55.87
2018-01-20T23:47:41.476Z,52.77
2018-01-20T23:50:09.275Z,55.80
2018-01-20T23:52:37.088Z,55.30
2018-01-20T23:55:04.906Z,51.33
2018-01-20T23:57:32.723Z,47.27
